Time;durP1;ratioP1;P1;durP2;ratioP2;P2;SDS_P1;SDS_P2;PMS_P1;PMS_P2;Temp;Humidity;BMP_temperature;BMP_pressure;BME280_temperature;BME280_humidity;BME280_pressure;Samples;Min_cycle;Max_cycle;Signal;HPM_P1;HPM_P2
2022/06/01 00:01:59;;;;;;;12.43;11.33;;;10.70;99.90;;;;;;5050405;28;20236;-66
2022/06/01 00:04:25;;;;;;;13.33;11.93;;;10.70;99.90;;;;;;5050601;28;20175;-66
2022/06/01 00:06:51;;;;;;;12.23;11.20;;;10.60;99.90;;;;;;5050488;28;20179;-65
2022/06/01 00:09:17;;;;;;;12.80;11.60;;;10.50;99.90;;;;;;5050362;28;20407;-65
2022/06/01 00:11:43;;;;;;;13.60;12.13;;;10.50;99.90;;;;;;5050611;28;20195;-65
2022/06/01 00:14:09;;;;;;;13.03;11.73;;;10.40;99.90;;;;;;5049974;28;20267;-65
2022/06/01 00:16:35;;;;;;;13.47;11.90;;;10.40;99.90;;;;;;5052519;28;20198;-65
2022/06/01 00:19:00;;;;;;;12.60;11.30;;;10.40;99.90;;;;;;5053728;28;20652;-65
2022/06/01 00:21:26;;;;;;;14.03;12.57;;;10.40;99.90;;;;;;5054137;28;20590;-65
2022/06/01 00:23:52;;;;;;;14.63;13.17;;;10.40;99.90;;;;;;5053585;28;20214;-68
2022/06/01 00:26:17;;;;;;;14.13;12.73;;;10.40;99.90;;;;;;5054373;28;20174;-64
2022/06/01 00:28:43;;;;;;;13.80;12.47;;;10.30;99.90;;;;;;5053678;28;20555;-64
2022/06/01 00:31:11;;;;;;;15.30;13.80;;;10.20;99.90;;;;;;5053997;28;20202;-64
2022/06/01 00:33:37;;;;;;;13.43;12.07;;;10.20;99.90;;;;;;5053510;28;20264;-64
2022/06/01 00:36:05;;;;;;;14.73;13.17;;;10.20;99.90;;;;;;5054023;28;20186;-64
2022/06/01 00:38:30;;;;;;;13.87;12.47;;;10.10;99.90;;;;;;5053799;28;20178;-64
2022/06/01 00:40:56;;;;;;;14.87;13.37;;;10.10;99.90;;;;;;5053623;28;20206;-64
2022/06/01 00:43:25;;;;;;;15.30;13.70;;;10.10;99.90;;;;;;5053722;28;20305;-64
2022/06/01 00:45:52;;;;;;;15.63;14.03;;;10.10;99.90;;;;;;5053631;28;20175;-64
2022/06/01 00:48:25;;;;;;;14.40;12.93;;;10.00;99.90;;;;;;5053947;28;20252;-63
2022/06/01 00:50:51;;;;;;;15.00;12.40;;;10.00;99.90;;;;;;5053341;28;20210;-64
2022/06/01 00:53:22;;;;;;;14.37;12.53;;;10.00;99.90;;;;;;5053571;28;20195;-64
2022/06/01 00:55:54;;;;;;;13.10;11.80;;;9.90;99.90;;;;;;5053394;28;20228;-63
2022/06/01 00:58:25;;;;;;;15.87;11.70;;;9.80;99.90;;;;;;5053708;28;20175;-64
2022/06/01 01:00:53;;;;;;;12.80;11.60;;;9.80;99.90;;;;;;5053206;28;20577;-64
2022/06/01 01:03:23;;;;;;;12.10;10.73;;;9.80;99.90;;;;;;5053422;28;20552;-64
2022/06/01 01:06:21;;;;;;;11.27;10.20;;;9.80;99.90;;;;;;5053312;28;20195;-64
2022/06/01 01:08:48;;;;;;;11.47;10.37;;;9.80;99.90;;;;;;5048232;28;20187;-63
2022/06/01 01:11:16;;;;;;;11.43;10.27;;;9.70;99.90;;;;;;5053094;28;20202;-64
2022/06/01 01:13:45;;;;;;;11.13;10.10;;;9.70;99.90;;;;;;5052875;28;20232;-64
2022/06/01 01:16:12;;;;;;;12.30;11.30;;;9.60;99.90;;;;;;5052901;28;20308;-64
2022/06/01 01:18:43;;;;;;;11.03;10.10;;;9.60;99.90;;;;;;5053229;28;20236;-64
2022/06/01 01:21:26;;;;;;;10.57;9.77;;;9.60;99.90;;;;;;5052357;28;20217;-64
2022/06/01 01:24:00;;;;;;;11.10;9.73;;;9.60;99.90;;;;;;5032857;28;20263;-64
2022/06/01 01:26:27;;;;;;;11.03;10.03;;;9.50;99.90;;;;;;5033143;28;20560;-64
2022/06/01 01:28:53;;;;;;;11.63;10.70;;;9.60;99.90;;;;;;5032388;28;20171;-64
2022/06/01 01:31:21;;;;;;;10.97;10.07;;;9.60;99.90;;;;;;5047442;28;20221;-64
2022/06/01 01:33:49;;;;;;;10.97;10.07;;;9.50;99.90;;;;;;5052620;28;20186;-64
2022/06/01 01:36:17;;;;;;;10.07;9.07;;;9.50;99.90;;;;;;5052665;28;20300;-64
2022/06/01 01:38:46;;;;;;;10.07;8.93;;;9.60;99.90;;;;;;5052793;28;20171;-64
2022/06/01 01:41:30;;;;;;;10.17;9.37;;;9.50;99.90;;;;;;5052073;28;20630;-64
2022/06/01 01:44:15;;;;;;;9.10;8.47;;;9.60;99.90;;;;;;5052631;28;20662;-65
2022/06/01 01:46:47;;;;;;;8.63;7.93;;;9.60;99.90;;;;;;5052362;28;20183;-65
2022/06/01 01:49:15;;;;;;;9.30;8.63;;;9.50;99.90;;;;;;5052595;28;20720;-64
2022/06/01 01:51:41;;;;;;;9.50;8.60;;;9.50;99.90;;;;;;5052228;28;20682;-64
2022/06/01 01:54:36;;;;;;;8.70;8.00;;;9.60;99.90;;;;;;5052228;28;20183;-65
2022/06/01 01:57:33;;;;;;;8.07;7.47;;;9.60;99.90;;;;;;5043801;28;20202;-64
2022/06/01 02:00:22;;;;;;;9.80;8.83;;;9.60;99.90;;;;;;5034918;28;20194;-65
2022/06/01 02:02:56;;;;;;;8.60;7.87;;;9.60;99.90;;;;;;5052397;28;20579;-65
2022/06/01 02:08:46;;;;;;;8.80;8.00;;;9.70;99.90;;;;;;5052285;28;20332;-65
2022/06/01 02:14:12;;;;;;;7.83;7.23;;;9.60;99.90;;;;;;5051637;28;20252;-69
2022/06/01 02:16:42;;;;;;;9.97;9.17;;;9.70;99.90;;;;;;5053271;28;20181;-69
2022/06/01 02:19:20;;;;;;;8.73;7.93;;;9.60;99.90;;;;;;5052844;28;20191;-69
2022/06/01 02:21:46;;;;;;;8.67;7.87;;;9.60;99.90;;;;;;5053038;28;20210;-71
2022/06/01 02:24:12;;;;;;;8.57;7.97;;;9.60;99.90;;;;;;5052532;28;20194;-67
2022/06/01 02:26:38;;;;;;;8.73;8.10;;;9.60;99.90;;;;;;5053016;28;20171;-71
2022/06/01 02:29:16;;;;;;;7.63;7.10;;;9.60;99.90;;;;;;5052688;28;20673;-69
2022/06/01 02:31:43;;;;;;;8.30;7.70;;;9.50;99.90;;;;;;5053160;28;20285;-66
2022/06/01 02:34:11;;;;;;;7.93;7.23;;;9.50;99.90;;;;;;5052461;28;20239;-69
2022/06/01 02:36:39;;;;;;;8.50;7.70;;;9.50;99.90;;;;;;5052978;28;20171;-67
2022/06/01 02:39:07;;;;;;;8.50;7.90;;;9.50;99.90;;;;;;5052129;28;20538;-70
2022/06/01 02:44:18;;;;;;;9.13;7.40;;;9.50;99.90;;;;;;5052406;28;20189;-68
2022/06/01 02:46:44;;;;;;;8.47;7.87;;;9.50;99.90;;;;;;5051512;28;20171;-68
2022/06/01 02:49:10;;;;;;;8.20;7.63;;;9.50;99.90;;;;;;5052136;28;20238;-70
2022/06/01 02:51:35;;;;;;;10.10;7.43;;;9.50;99.90;;;;;;5051240;28;20297;-67
2022/06/01 02:54:02;;;;;;;9.90;8.20;;;9.50;99.90;;;;;;5051932;28;20174;-67
2022/06/01 02:56:28;;;;;;;9.30;8.60;;;9.50;99.90;;;;;;5052302;28;20175;-68
2022/06/01 02:58:54;;;;;;;8.53;7.83;;;9.50;99.90;;;;;;5052074;28;20732;-70
2022/06/01 03:01:20;;;;;;;8.40;7.63;;;9.50;99.90;;;;;;5051907;28;20210;-69
2022/06/01 03:03:45;;;;;;;9.13;7.80;;;9.50;99.90;;;;;;5052357;28;20175;-69
2022/06/01 03:06:11;;;;;;;8.60;7.67;;;9.50;99.90;;;;;;5050717;28;20179;-68
2022/06/01 03:08:37;;;;;;;8.67;7.97;;;9.50;99.90;;;;;;5052454;28;20240;-67
2022/06/01 03:11:03;;;;;;;11.47;8.00;;;9.40;99.90;;;;;;5052066;28;20214;-67
2022/06/01 03:13:28;;;;;;;8.73;8.10;;;9.40;99.90;;;;;;5051875;28;20672;-70
2022/06/01 03:15:54;;;;;;;8.00;7.40;;;9.40;99.90;;;;;;5052179;28;20206;-68
2022/06/01 03:18:20;;;;;;;9.70;7.20;;;9.40;99.90;;;;;;5052468;28;20181;-68
2022/06/01 03:20:46;;;;;;;8.63;7.83;;;9.40;99.90;;;;;;5050687;28;20210;-67
2022/06/01 03:23:12;;;;;;;8.63;7.90;;;9.30;99.90;;;;;;5052164;28;20181;-68
2022/06/01 03:25:38;;;;;;;8.40;7.80;;;9.30;99.90;;;;;;5051951;28;20175;-68
2022/06/01 03:28:05;;;;;;;9.37;8.47;;;9.30;99.90;;;;;;5052237;28;20613;-68
2022/06/01 03:30:32;;;;;;;9.07;8.43;;;9.30;99.90;;;;;;5052273;28;20194;-67
2022/06/01 03:32:57;;;;;;;11.23;8.07;;;9.30;99.90;;;;;;5051953;28;20186;-70
2022/06/01 03:35:26;;;;;;;9.90;7.90;;;9.30;99.90;;;;;;5051703;28;20190;-67
2022/06/01 03:37:52;;;;;;;8.87;8.03;;;9.30;99.90;;;;;;5051713;28;20262;-68
2022/06/01 03:40:20;;;;;;;9.27;8.37;;;9.40;99.90;;;;;;5052046;28;20238;-67
2022/06/01 03:42:46;;;;;;;8.97;8.20;;;9.40;99.90;;;;;;5051810;28;20250;-68
2022/06/01 03:47:56;;;;;;;8.47;7.77;;;9.50;99.90;;;;;;5051894;28;20196;-68
2022/06/01 03:50:24;;;;;;;8.70;8.10;;;9.50;99.90;;;;;;5052271;28;20206;-67
2022/06/01 03:52:51;;;;;;;7.87;7.20;;;9.50;99.90;;;;;;5054487;28;20201;-70
2022/06/01 03:55:17;;;;;;;8.23;7.60;;;9.50;99.90;;;;;;5053487;28;20185;-65
2022/06/01 03:57:43;;;;;;;9.10;8.10;;;9.60;99.90;;;;;;5054779;28;20167;-65
2022/06/01 04:00:13;;;;;;;8.70;8.00;;;9.60;99.90;;;;;;5054669;28;20191;-65
2022/06/01 04:02:40;;;;;;;10.93;7.97;;;9.70;99.90;;;;;;5054585;28;20193;-65
2022/06/01 04:05:06;;;;;;;8.37;7.67;;;9.80;99.90;;;;;;5054344;28;20179;-65
2022/06/01 04:07:31;;;;;;;8.37;7.57;;;9.80;99.90;;;;;;5052911;28;20206;-65
2022/06/01 04:09:57;;;;;;;8.80;8.07;;;9.90;99.90;;;;;;5054481;28;20195;-65
2022/06/01 04:12:23;;;;;;;8.07;7.30;;;9.90;99.90;;;;;;5053218;28;20190;-65
2022/06/01 04:14:49;;;;;;;9.60;8.90;;;10.00;99.90;;;;;;5053802;28;20517;-65
2022/06/01 04:17:14;;;;;;;8.50;7.90;;;10.10;99.90;;;;;;5054401;28;20585;-65
2022/06/01 04:19:40;;;;;;;8.33;7.67;;;10.10;99.90;;;;;;5053822;28;20177;-65
2022/06/01 04:22:07;;;;;;;8.07;7.47;;;10.20;99.90;;;;;;5093896;22;20243;-66
2022/06/01 04:24:34;;;;;;;10.63;7.40;;;10.40;99.90;;;;;;5074157;28;20567;-66
2022/06/01 04:27:00;;;;;;;7.97;7.27;;;10.50;99.90;;;;;;5072752;28;20227;-66
2022/06/01 04:29:26;;;;;;;7.80;7.23;;;10.60;99.90;;;;;;5074517;28;20166;-66
2022/06/01 04:32:07;;;;;;;9.40;7.97;;;10.60;99.90;;;;;;5072170;28;20197;-66
2022/06/01 04:34:33;;;;;;;8.80;8.00;;;10.70;99.90;;;;;;5052808;28;20548;-66
2022/06/01 04:36:58;;;;;;;8.90;8.07;;;10.80;99.90;;;;;;5055058;28;20171;-66
2022/06/01 04:39:25;;;;;;;8.23;7.43;;;11.00;99.90;;;;;;5073988;28;20170;-66
2022/06/01 04:41:51;;;;;;;8.73;7.40;;;11.20;99.90;;;;;;5073906;28;20206;-66
2022/06/01 04:44:16;;;;;;;8.07;7.47;;;11.30;99.90;;;;;;5052793;28;20174;-66
2022/06/01 04:46:42;;;;;;;9.30;8.07;;;11.40;99.90;;;;;;5054165;28;20174;-66
2022/06/01 04:49:08;;;;;;;8.60;7.90;;;11.60;99.90;;;;;;5054251;28;20210;-66
2022/06/01 04:51:35;;;;;;;7.93;7.33;;;11.70;99.90;;;;;;5053718;28;20222;-66
2022/06/01 04:54:00;;;;;;;8.77;7.87;;;11.90;99.90;;;;;;5069463;28;20186;-67
2022/06/01 04:56:27;;;;;;;7.57;7.07;;;12.10;99.90;;;;;;5073785;28;20197;-68
2022/06/01 04:58:52;;;;;;;7.00;6.50;;;12.40;99.90;;;;;;5059411;28;20186;-66
2022/06/01 05:01:18;;;;;;;7.23;6.73;;;12.70;99.90;;;;;;5053354;28;20205;-66
2022/06/01 05:03:43;;;;;;;6.90;6.37;;;12.90;99.90;;;;;;5064683;28;20277;-66
2022/06/01 05:06:09;;;;;;;7.50;6.87;;;13.00;99.90;;;;;;5071986;28;20182;-65
2022/06/01 05:08:35;;;;;;;7.30;6.70;;;13.10;99.90;;;;;;5062546;28;20250;-66
2022/06/01 05:11:01;;;;;;;7.20;6.50;;;13.20;99.90;;;;;;5053329;28;20278;-66
2022/06/01 05:13:27;;;;;;;7.13;6.50;;;13.30;99.90;;;;;;5061508;28;20228;-67
2022/06/01 05:15:56;;;;;;;7.43;6.67;;;13.60;99.90;;;;;;5067730;28;20515;-67
2022/06/01 05:18:22;;;;;;;6.97;6.33;;;13.90;99.90;;;;;;5053409;28;20185;-65
2022/06/01 05:20:48;;;;;;;6.83;6.33;;;13.90;99.90;;;;;;5054011;28;20263;-65
2022/06/01 05:23:16;;;;;;;6.60;6.10;;;14.00;99.90;;;;;;5064265;28;20167;-66
2022/06/01 05:25:43;;;;;;;6.73;6.23;;;14.00;99.90;;;;;;5052797;28;20175;-66
2022/06/01 05:28:10;;;;;;;7.10;6.57;;;14.10;99.90;;;;;;5053159;28;20189;-67
2022/06/01 05:30:35;;;;;;;6.53;6.03;;;13.80;99.90;;;;;;5053014;28;20179;-66
2022/06/01 05:33:01;;;;;;;6.67;6.10;;;13.80;99.90;;;;;;5073161;28;20295;-67
2022/06/01 05:35:26;;;;;;;6.93;6.33;;;13.70;99.90;;;;;;5072564;28;20165;-66
2022/06/01 05:37:52;;;;;;;7.33;5.93;;;13.80;99.90;;;;;;5053117;28;20178;-66
2022/06/01 05:40:18;;;;;;;6.90;6.23;;;13.90;99.90;;;;;;5062342;28;20209;-66
2022/06/01 05:42:43;;;;;;;6.43;6.00;;;14.20;99.90;;;;;;5072849;28;20523;-67
2022/06/01 05:45:10;;;;;;;6.53;6.00;;;14.40;99.90;;;;;;5055537;28;20178;-66
2022/06/01 05:47:36;;;;;;;6.03;5.53;;;14.80;99.90;;;;;;5052888;28;20175;-67
2022/06/01 05:50:04;;;;;;;6.40;5.60;;;15.00;99.90;;;;;;5066686;28;20210;-66
2022/06/01 05:52:29;;;;;;;6.10;5.40;;;15.30;99.90;;;;;;5072639;28;20194;-66
2022/06/01 05:54:55;;;;;;;5.90;5.40;;;15.40;99.90;;;;;;5058036;28;20190;-66
2022/06/01 05:57:21;;;;;;;5.23;4.83;;;15.50;99.90;;;;;;5052361;28;20693;-66
2022/06/01 05:59:47;;;;;;;5.67;5.17;;;15.70;99.90;;;;;;5061679;28;20231;-65
2022/06/01 06:02:12;;;;;;;6.50;5.50;;;15.80;99.90;;;;;;5072279;28;20214;-65
2022/06/01 06:04:38;;;;;;;6.03;5.53;;;16.00;99.90;;;;;;5062808;28;20174;-65
2022/06/01 06:07:04;;;;;;;6.03;5.53;;;16.10;99.90;;;;;;5053108;28;20251;-66
2022/06/01 06:09:30;;;;;;;6.73;5.70;;;16.20;99.90;;;;;;5072221;28;20171;-66
2022/06/01 06:11:55;;;;;;;6.27;5.77;;;16.20;99.90;;;;;;5066025;28;20206;-66
2022/06/01 06:14:21;;;;;;;5.17;4.87;;;16.20;99.90;;;;;;5051762;28;20665;-65
2022/06/01 06:16:47;;;;;;;5.47;4.97;;;16.30;99.90;;;;;;5056158;28;20270;-66
2022/06/01 06:19:15;;;;;;;5.30;4.90;;;16.20;99.90;;;;;;5072166;28;20242;-65
2022/06/01 06:21:41;;;;;;;7.13;5.43;;;16.40;99.90;;;;;;5069187;28;20214;-66
2022/06/01 06:24:13;;;;;;;4.77;4.47;;;16.70;99.90;;;;;;5051763;28;20574;-66
2022/06/01 06:26:42;;;;;;;5.50;5.10;;;17.00;99.90;;;;;;5053576;28;20258;-66
2022/06/01 06:29:10;;;;;;;5.23;4.83;;;17.20;99.90;;;;;;5072143;28;20162;-66
2022/06/01 06:31:37;;;;;;;5.27;4.87;;;17.70;99.90;;;;;;5070775;28;20560;-67
2022/06/01 06:34:03;;;;;;;5.27;4.77;;;17.90;99.90;;;;;;5051541;28;20594;-66
2022/06/01 06:36:29;;;;;;;5.57;4.57;;;18.20;99.90;;;;;;5052290;28;20206;-67
2022/06/01 06:38:55;;;;;;;4.97;4.60;;;18.60;99.90;;;;;;5052679;28;20182;-67
2022/06/01 06:41:21;;;;;;;5.27;4.50;;;19.20;99.90;;;;;;5051655;28;20206;-67
2022/06/01 06:43:47;;;;;;;5.83;4.53;;;19.60;99.90;;;;;;5068228;28;20545;-66
2022/06/01 06:46:17;;;;;;;4.90;4.50;;;20.00;99.90;;;;;;5071551;28;20182;-66
2022/06/01 06:48:45;;;;;;;6.40;4.47;;;20.40;99.90;;;;;;5069840;28;20170;-67
2022/06/01 06:51:12;;;;;;;9.15;4.70;;;20.90;99.90;;;;;;5071382;28;20270;-67
2022/06/01 06:53:38;;;;;;;7.47;4.22;;;21.00;99.90;;;;;;5055273;28;20563;-67
2022/06/01 06:56:05;;;;;;;4.53;3.60;;;20.50;99.90;;;;;;5051753;28;20332;-67
2022/06/01 06:58:31;;;;;;;4.90;3.67;;;20.40;99.90;;;;;;5063912;28;20584;-67
2022/06/01 07:00:57;;;;;;;5.97;4.10;;;20.20;99.90;;;;;;5071316;28;20275;-66
2022/06/01 07:03:23;;;;;;;6.03;4.20;;;19.50;99.90;;;;;;5059712;28;20237;-66
2022/06/01 07:08:34;;;;;;;4.30;4.00;;;18.40;99.90;;;;;;5071774;28;20227;-66
2022/06/01 07:10:59;;;;;;;4.30;4.00;;;17.90;99.90;;;;;;5061811;28;20213;-66
2022/06/01 07:13:27;;;;;;;4.50;4.20;;;17.80;99.90;;;;;;5050921;28;20178;-67
2022/06/01 07:16:07;;;;;;;4.53;4.13;;;17.70;99.90;;;;;;5057823;28;20174;-69
2022/06/01 07:18:34;;;;;;;4.63;4.23;;;17.70;99.90;;;;;;5070063;28;20182;-70
2022/06/01 07:21:00;;;;;;;5.10;4.70;;;17.90;99.90;;;;;;5063244;28;20226;-69
2022/06/01 07:23:25;;;;;;;4.63;4.27;;;17.90;99.90;;;;;;5050934;28;20175;-66
2022/06/01 07:25:52;;;;;;;5.40;4.00;;;18.10;99.90;;;;;;5055568;28;20231;-66
2022/06/01 07:28:21;;;;;;;4.97;4.10;;;18.20;99.90;;;;;;5071299;28;20250;-67
2022/06/01 07:30:49;;;;;;;5.63;4.20;;;18.30;99.90;;;;;;5066402;28;20301;-66
2022/06/01 07:33:15;;;;;;;4.20;3.80;;;18.30;99.90;;;;;;5050990;28;20213;-66
2022/06/01 07:35:40;;;;;;;4.40;4.00;;;18.40;99.90;;;;;;5053099;28;20665;-66
2022/06/01 07:43:38;;;;;;;10.33;4.23;;;19.00;99.90;;;;;;5064193;28;20603;-66
2022/06/01 07:46:03;;;;;;;4.60;4.30;;;19.10;99.90;;;;;;5070918;28;20194;-66
2022/06/01 07:48:29;;;;;;;4.13;3.83;;;19.10;99.90;;;;;;5067423;28;20260;-66
2022/06/01 07:50:54;;;;;;;4.00;3.70;;;19.10;99.90;;;;;;5050030;28;20669;-67
2022/06/01 07:53:20;;;;;;;4.17;3.70;;;19.30;99.90;;;;;;5051895;28;20202;-66
2022/06/01 07:55:45;;;;;;;4.83;3.57;;;20.00;99.90;;;;;;5070755;28;20260;-66
2022/06/01 07:58:11;;;;;;;4.47;3.57;;;20.30;99.90;;;;;;5069562;28;20212;-66
2022/06/01 08:00:37;;;;;;;4.73;3.60;;;20.60;99.90;;;;;;5050857;28;20211;-66
2022/06/01 08:03:03;;;;;;;4.23;3.30;;;20.40;99.90;;;;;;5050331;28;20167;-67
2022/06/01 08:05:29;;;;;;;3.80;3.50;;;20.40;99.90;;;;;;5050180;28;20257;-66
2022/06/01 08:07:55;;;;;;;4.10;3.80;;;19.90;99.90;;;;;;5060251;28;20274;-66
2022/06/01 08:10:21;;;;;;;3.83;3.60;;;20.00;99.90;;;;;;5068832;28;20178;-66
2022/06/01 08:15:34;;;;;;;3.67;3.37;;;20.30;99.90;;;;;;5050461;28;20213;-66
2022/06/01 08:17:59;;;;;;;5.47;3.72;;;20.70;99.90;;;;;;5054359;28;20187;-66
2022/06/01 08:20:27;;;;;;;3.42;3.22;;;21.30;99.90;;;;;;5050215;28;20241;-66
2022/06/01 08:22:52;;;;;;;5.75;3.25;;;21.70;99.90;;;;;;5068691;28;20194;-66
2022/06/01 08:25:21;;;;;;;5.50;3.28;;;22.00;99.90;;;;;;5068972;28;20173;-67
2022/06/01 08:27:47;;;;;;;3.58;3.25;;;22.30;99.90;;;;;;5067279;28;20526;-67
2022/06/01 08:30:14;;;;;;;3.53;3.28;;;22.50;99.90;;;;;;5070680;28;20170;-66
2022/06/01 08:32:40;;;;;;;7.68;3.53;;;22.60;99.90;;;;;;5054932;28;20289;-67
2022/06/01 08:35:08;;;;;;;3.58;3.28;;;22.40;99.90;;;;;;5053747;28;20289;-66
2022/06/01 08:37:33;;;;;;;3.85;3.05;;;22.00;99.90;;;;;;5072110;28;20640;-67
2022/06/01 08:39:59;;;;;;;3.88;3.58;;;21.60;99.90;;;;;;5071212;28;20197;-67
2022/06/01 08:42:27;;;;;;;3.95;3.60;;;21.30;99.90;;;;;;5053927;28;20228;-66
2022/06/01 08:44:55;;;;;;;3.90;3.50;;;21.00;99.90;;;;;;5053616;28;20224;-66
2022/06/01 08:47:25;;;;;;;3.63;3.40;;;20.50;99.90;;;;;;5053797;28;20166;-66
2022/06/01 08:49:50;;;;;;;3.60;3.40;;;20.10;99.90;;;;;;5052088;28;20194;-67
2022/06/01 08:52:16;;;;;;;4.20;3.40;;;20.10;99.90;;;;;;5054972;28;20233;-66
2022/06/01 08:54:41;;;;;;;4.37;4.00;;;20.40;99.90;;;;;;5053570;28;20799;-66
2022/06/01 08:57:15;;;;;;;4.00;3.60;;;20.90;99.90;;;;;;5071244;28;20525;-67
2022/06/01 08:59:46;;;;;;;3.65;3.42;;;21.00;99.90;;;;;;5073754;28;20175;-66
2022/06/01 09:02:39;;;;;;;5.33;3.70;;;20.90;99.90;;;;;;5071720;28;20210;-66
2022/06/01 09:05:15;;;;;;;3.60;3.40;;;20.80;99.90;;;;;;5033230;28;20203;-66
2022/06/01 09:07:52;;;;;;;5.03;4.03;;;20.20;99.90;;;;;;5033468;28;20669;-65
2022/06/01 09:10:44;;;;;;;3.80;3.50;;;19.80;99.90;;;;;;5033449;28;20586;-66
2022/06/01 09:13:23;;;;;;;3.50;3.30;;;20.20;99.90;;;;;;5038020;28;20170;-66
2022/06/01 09:16:01;;;;;;;3.33;3.13;;;21.00;99.90;;;;;;5053175;28;20555;-66
2022/06/01 09:18:36;;;;;;;6.75;3.30;;;21.80;99.90;;;;;;5056957;28;20536;-67
2022/06/01 09:23:47;;;;;;;6.65;3.20;;;23.00;99.90;;;;;;5069238;28;20181;-66
2022/06/01 09:26:28;;;;;;;3.13;2.92;;;23.40;99.90;;;;;;5041051;28;20175;-67
2022/06/01 09:28:57;;;;;;;3.40;3.20;;;23.60;99.90;;;;;;5031708;28;20655;-66
2022/06/01 09:31:33;;;;;;;3.00;2.80;;;23.80;99.90;;;;;;5031601;28;20635;-66
2022/06/01 09:34:26;;;;;;;5.20;3.28;;;23.50;99.90;;;;;;5046298;28;20178;-67
2022/06/01 09:37:10;;;;;;;3.40;3.20;;;22.80;99.90;;;;;;5071689;28;20538;-66
2022/06/01 09:39:38;;;;;;;4.40;3.50;;;22.20;99.90;;;;;;5061499;28;20233;-66
2022/06/01 09:42:16;;;;;;;3.60;3.40;;;22.00;99.90;;;;;;5050257;28;20583;-66
2022/06/01 09:44:48;;;;;;;3.53;3.33;;;22.10;99.90;;;;;;5063683;28;20204;-66
2022/06/01 09:47:28;;;;;;;3.97;3.65;;;21.90;99.90;;;;;;5072795;28;20177;-66
2022/06/01 09:49:57;;;;;;;5.70;3.20;;;22.00;99.90;;;;;;5068858;28;20183;-66
2022/06/01 09:52:42;;;;;;;3.67;3.40;;;22.70;99.90;;;;;;5071449;28;20201;-66
2022/06/01 09:55:10;;;;;;;3.50;3.30;;;22.80;99.90;;;;;;5058706;28;20186;-66
2022/06/01 09:57:38;;;;;;;3.40;3.20;;;22.90;99.90;;;;;;5052452;28;20577;-66
2022/06/01 10:06:21;;;;;;;3.38;3.17;;;22.80;99.90;;;;;;5032802;28;20181;-66
2022/06/01 10:09:19;;;;;;;3.30;3.10;;;22.30;99.90;;;;;;5069285;28;20178;-66
2022/06/01 10:11:47;;;;;;;3.20;3.00;;;21.70;99.90;;;;;;5044774;28;20206;-66
2022/06/01 10:14:21;;;;;;;3.80;3.50;;;21.60;99.90;;;;;;5050252;28;20261;-66
2022/06/01 10:17:01;;;;;;;3.80;3.50;;;22.00;99.90;;;;;;5052450;28;20170;-66
2022/06/01 10:19:41;;;;;;;3.72;3.42;;;22.00;99.90;;;;;;5051868;28;20249;-66
2022/06/01 10:22:24;;;;;;;5.30;3.53;;;22.10;99.90;;;;;;5091110;22;20245;-63
2022/06/01 10:25:06;;;;;;;3.50;3.30;;;22.60;99.90;;;;;;5071400;28;20198;-63
2022/06/01 10:27:38;;;;;;;3.58;3.38;;;22.90;99.90;;;;;;5071511;28;20174;-64
2022/06/01 10:30:11;;;;;;;4.03;3.35;;;22.90;99.90;;;;;;5071821;28;20281;-62
2022/06/01 10:32:47;;;;;;;3.50;3.30;;;23.30;99.90;;;;;;5055228;28;20286;-63
2022/06/01 10:35:40;;;;;;;3.45;3.10;;;23.60;99.90;;;;;;5051283;28;20174;-63
2022/06/01 10:38:21;;;;;;;3.40;3.10;;;24.30;99.90;;;;;;5031745;28;20209;-62
2022/06/01 10:41:06;;;;;;;3.45;3.20;;;24.70;99.90;;;;;;5042115;28;20198;-63
2022/06/01 10:43:59;;;;;;;3.40;2.95;;;24.80;99.90;;;;;;5051302;28;20828;-63
2022/06/01 10:46:51;;;;;;;4.22;3.40;;;24.60;99.90;;;;;;5051305;28;20622;-63
2022/06/01 10:49:56;;;;;;;3.70;3.40;;;23.90;99.90;;;;;;5050470;28;20271;-62
2022/06/01 10:52:34;;;;;;;3.72;3.42;;;22.50;99.90;;;;;;5051090;28;20207;-63
2022/06/01 10:55:12;;;;;;;4.72;3.95;;;21.70;99.90;;;;;;5051040;28;20185;-64
2022/06/01 10:57:41;;;;;;;6.30;3.83;;;20.90;99.90;;;;;;5050959;28;20209;-66
2022/06/01 11:00:10;;;;;;;4.50;3.77;;;20.60;99.90;;;;;;5050246;28;20202;-65
2022/06/01 11:03:21;;;;;;;3.87;3.30;;;20.70;99.90;;;;;;5050113;28;20564;-63
2022/06/01 11:06:25;;;;;;;3.85;3.53;;;21.00;99.90;;;;;;5016714;28;20198;-65
2022/06/01 11:09:08;;;;;;;4.45;4.00;;;21.20;99.90;;;;;;5050796;28;20258;-65
2022/06/01 11:11:53;;;;;;;3.47;3.20;;;21.20;99.90;;;;;;5051231;28;20194;-64
2022/06/01 11:14:31;;;;;;;3.97;3.35;;;21.60;99.90;;;;;;5050719;28;20214;-63
2022/06/01 11:17:08;;;;;;;3.80;3.50;;;22.70;99.90;;;;;;5051486;28;20217;-64
2022/06/01 11:20:03;;;;;;;5.32;3.55;;;23.10;99.90;;;;;;5049477;28;20209;-63
2022/06/01 11:22:51;;;;;;;6.15;3.42;;;23.20;99.90;;;;;;5050946;28;20308;-63
2022/06/01 11:25:38;;;;;;;3.90;3.60;;;23.00;99.90;;;;;;5050492;28;20189;-64
2022/06/01 11:28:41;;;;;;;5.93;3.60;;;22.70;99.90;;;;;;5051089;28;20175;-64
2022/06/01 11:31:22;;;;;;;6.90;3.50;;;22.40;99.90;;;;;;5022790;28;20218;-64
2022/06/01 11:34:01;;;;;;;4.03;3.63;;;21.80;99.90;;;;;;5032325;28;20777;-63
2022/06/01 11:36:35;;;;;;;3.53;3.20;;;21.50;99.90;;;;;;5051463;28;20170;-64
2022/06/01 11:39:22;;;;;;;3.63;3.40;;;21.30;99.90;;;;;;5048787;28;20486;-64
2022/06/01 11:42:06;;;;;;;4.45;3.72;;;21.00;99.90;;;;;;5049888;28;20202;-63
2022/06/01 11:44:35;;;;;;;6.97;3.53;;;21.00;99.90;;;;;;5050337;28;20178;-63
2022/06/01 11:47:14;;;;;;;5.88;3.88;;;21.40;99.90;;;;;;5050476;28;20175;-63
2022/06/01 11:50:17;;;;;;;3.70;3.40;;;21.80;99.90;;;;;;5050681;28;20166;-63
2022/06/01 11:52:57;;;;;;;4.32;3.90;;;21.90;99.90;;;;;;5050367;28;20252;-63
2022/06/01 11:55:35;;;;;;;4.22;3.92;;;21.60;99.90;;;;;;5050222;28;20581;-64
2022/06/01 11:58:13;;;;;;;5.10;3.73;;;21.00;99.90;;;;;;5050322;28;20179;-64
2022/06/01 12:00:41;;;;;;;4.00;3.60;;;20.70;99.90;;;;;;5050878;28;20278;-64
2022/06/01 12:03:25;;;;;;;4.30;4.00;;;20.80;99.90;;;;;;5050295;28;20190;-64
2022/06/01 12:06:14;;;;;;;3.93;3.60;;;20.60;99.90;;;;;;5050331;28;20171;-63
2022/06/01 12:08:54;;;;;;;3.73;3.53;;;20.50;99.90;;;;;;5050788;28;20167;-62
2022/06/01 12:11:38;;;;;;;3.87;3.57;;;20.20;99.90;;;;;;5050184;28;20281;-63
2022/06/01 12:14:30;;;;;;;3.73;3.43;;;20.10;99.90;;;;;;5053893;28;20175;-63
2022/06/01 12:17:17;;;;;;;3.77;3.47;;;20.00;99.90;;;;;;5053179;28;20170;-65
2022/06/01 12:19:50;;;;;;;5.20;3.57;;;20.30;99.90;;;;;;5054330;28;20180;-64
2022/06/01 12:28:31;;;;;;;3.97;3.67;;;20.90;99.90;;;;;;5039256;28;20710;-64
2022/06/01 12:31:20;;;;;;;3.55;3.35;;;21.20;99.90;;;;;;5053372;28;20210;-65
2022/06/01 12:34:04;;;;;;;3.70;3.40;;;21.50;99.90;;;;;;5052452;28;20187;-63
2022/06/01 12:36:48;;;;;;;7.18;3.30;;;21.70;99.90;;;;;;5053881;28;20205;-64
2022/06/01 12:39:43;;;;;;;3.92;3.45;;;21.90;99.90;;;;;;5053243;28;20269;-64
2022/06/01 12:42:25;;;;;;;3.42;3.10;;;22.00;99.90;;;;;;5053580;28;20309;-64
2022/06/01 12:44:55;;;;;;;3.60;3.33;;;22.30;99.90;;;;;;5053249;28;20198;-64
2022/06/01 12:47:33;;;;;;;4.20;3.40;;;22.70;99.90;;;;;;5053597;28;20170;-63
2022/06/01 12:50:06;;;;;;;3.38;3.08;;;23.20;99.90;;;;;;5053161;28;20185;-64
2022/06/01 12:52:31;;;;;;;3.25;3.05;;;23.10;99.90;;;;;;5053623;28;20207;-64
2022/06/01 12:55:06;;;;;;;3.63;3.42;;;23.10;99.90;;;;;;5052982;28;20197;-64
2022/06/01 12:57:40;;;;;;;3.30;3.10;;;22.80;99.90;;;;;;5053484;28;20182;-64
2022/06/01 13:00:24;;;;;;;3.72;3.42;;;22.60;99.90;;;;;;5053108;28;20186;-64
2022/06/01 13:02:50;;;;;;;3.60;3.30;;;22.80;99.90;;;;;;5053297;28;20206;-64
2022/06/01 13:05:24;;;;;;;5.00;3.10;;;23.30;99.90;;;;;;5052676;28;20824;-65
2022/06/01 13:07:57;;;;;;;3.53;3.17;;;23.60;99.90;;;;;;5053046;28;20186;-65
2022/06/01 13:10:29;;;;;;;3.55;3.30;;;23.70;99.90;;;;;;5052782;28;20182;-64
2022/06/01 13:13:12;;;;;;;3.20;3.00;;;24.20;99.90;;;;;;5053098;28;20270;-64
2022/06/01 13:15:41;;;;;;;3.50;3.28;;;24.50;99.90;;;;;;5052766;28;20185;-64
2022/06/01 13:18:14;;;;;;;4.28;3.78;;;24.30;99.90;;;;;;5049921;28;20174;-64
2022/06/01 13:20:42;;;;;;;7.35;3.80;;;23.50;99.90;;;;;;5053134;28;20245;-64
2022/06/01 13:23:28;;;;;;;4.00;3.70;;;22.80;99.90;;;;;;5052461;28;20555;-64
2022/06/01 13:25:57;;;;;;;3.80;3.58;;;22.40;99.90;;;;;;5052871;28;20479;-64
2022/06/01 13:28:24;;;;;;;3.90;3.65;;;21.70;99.90;;;;;;5053105;28;20189;-64
2022/06/01 13:30:50;;;;;;;3.63;3.33;;;21.60;99.90;;;;;;5051339;28;20262;-65
2022/06/01 13:33:30;;;;;;;3.90;3.50;;;21.60;99.90;;;;;;5050205;28;20206;-65
2022/06/01 13:36:01;;;;;;;3.67;3.40;;;21.80;99.90;;;;;;5052250;28;20182;-63
2022/06/01 13:39:04;;;;;;;3.40;3.20;;;22.10;99.90;;;;;;5053014;28;20553;-64
2022/06/01 13:41:58;;;;;;;3.60;3.40;;;22.30;99.90;;;;;;5042822;28;20218;-64
2022/06/01 13:44:43;;;;;;;3.55;3.35;;;22.30;99.90;;;;;;5052751;28;20181;-64
2022/06/01 13:47:08;;;;;;;3.33;3.13;;;22.60;99.90;;;;;;5052741;28;20176;-64